Home > Products > Valid Products > TAF

000
FTUS43 KMKX 290324 AAB
TAFMKE
TAF AMD
KMKE 290324Z 2903/3006 04010KT P6SM -DZ OVC005
     FM290500 05004KT 5SM -SHRA OVC004
     FM290800 VRB03KT 6SM BR OVC008
     FM291400 03005KT P6SM OVC010
     FM291800 04007KT P6SM BKN020
     FM292100 04006KT P6SM SCT035=



000
FTUS43 KMKX 290321 AAB
TAFMSN
TAF AMD
KMSN 290321Z 2903/2924 06008KT 6SM -SHRA OVC010
      TEMPO 2903/2904 4SM -DZ BR OVC006
     FM290400 VRB03KT 4SM BR VCSH OVC006
     FM291000 04005KT P6SM OVC008
     FM291500 05006KT P6SM BKN020
     FM292200 07006KT P6SM SCT040=



000
FTUS43 KMKX 290200 AAA
TAFMKE
TAF AMD
KMKE 290200Z 2902/3006 04010KT P6SM OVC009
     FM290400 05004KT 5SM BR VCSH OVC006
     FM290900 VRB03KT 6SM BR OVC008
     FM291400 03005KT P6SM OVC010
     FM291800 04007KT P6SM BKN020
     FM292100 04006KT P6SM SCT035=



000
FTUS43 KMKX 290200 AAA
TAFMKE
TAF AMD
KMKE 290200Z 2902/3006 04010KT P6SM OVC009
     FM290400 05004KT 5SM BR VCSH OVC006
     FM290900 VRB03KT 6SM BR OVC008
     FM291400 03005KT P6SM OVC010
     FM291800 04007KT P6SM BKN020
     FM292100 04006KT P6SM SCT035=



000
FTUS43 KMKX 290158 AAA
TAFMSN
TAF AMD
KMSN 290158Z 2902/2924 08008KT P6SM OVC010
      TEMPO 2902/2904 4SM -DZ BR OVC006
     FM290400 VRB03KT 4SM BR VCSH OVC006
     FM291000 04005KT P6SM OVC008
     FM291500 05006KT P6SM BKN020
     FM292200 07006KT P6SM SCT040=



000
FTUS43 KMKX 282338
TAFMKE
TAF
KMKE 282338Z 2900/3006 04010KT P6SM OVC009
      TEMPO 2901/2905 4SM -DZ BR OVC004
     FM290500 05004KT 5SM BR VCSH OVC004
     FM290900 VRB03KT 6SM BR OVC008
     FM291400 03005KT P6SM OVC010
     FM291800 04007KT P6SM BKN020
     FM292100 04006KT P6SM SCT035=



000
FTUS43 KMKX 282338
TAFMSN
TAF
KMSN 282338Z 2900/2924 08008KT P6SM OVC009
      TEMPO 2900/2904 3SM -DZ BR OVC004
     FM290400 VRB03KT 4SM BR VCSH OVC003
     FM291000 04005KT P6SM OVC008
     FM291500 05006KT P6SM BKN020
     FM292200 07006KT P6SM SCT040=



000
FTUS43 KMKX 282338
TAFMKE
TAF
KMKE 282338Z 2900/3006 04010KT P6SM OVC009
      TEMPO 2901/2905 4SM -DZ BR OVC004
     FM290500 05004KT 5SM BR VCSH OVC004
     FM290900 VRB03KT 6SM BR OVC008
     FM291400 03005KT P6SM OVC010
     FM291800 04007KT P6SM BKN020
     FM292100 04006KT P6SM SCT035=



000
FTUS43 KMKX 282338
TAFMSN
TAF
KMSN 282338Z 2900/2924 08008KT P6SM OVC009
      TEMPO 2900/2904 3SM -DZ BR OVC004
     FM290400 VRB03KT 4SM BR VCSH OVC003
     FM291000 04005KT P6SM OVC008
     FM291500 05006KT P6SM BKN020
     FM292200 07006KT P6SM SCT040=



000
FTUS43 KMKX 282057 AAB
TAFMKE
TAF AMD
KMKE 282057Z 2821/2924 07013KT P6SM OVC006
     FM290000 04008KT P6SM VCSH OVC006
     FM290300 03008KT P6SM VCSH OVC007
     FM291000 02004KT P6SM OVC008
     FM291400 03007KT P6SM SCT010 BKN020
     FM291700 04008KT P6SM BKN035=



000
FTUS43 KMKX 282057 AAB
TAFMKE
TAF AMD
KMKE 282057Z 2821/2924 07013KT P6SM OVC006
     FM290000 04008KT P6SM VCSH OVC006
     FM290300 03008KT P6SM VCSH OVC007
     FM291000 02004KT P6SM OVC008
     FM291400 03007KT P6SM SCT010 BKN020
     FM291700 04008KT P6SM BKN035=



000
FTUS43 KMKX 282027 AAA
TAFMSN
TAF AMD
KMSN 282027Z 2820/2918 08011KT P6SM OVC009
     FM290200 06006KT P6SM VCSH OVC008
     FM290500 05005KT P6SM OVC007
     FM291300 02004KT P6SM OVC012
     FM291500 04005KT P6SM BKN028=



000
FTUS43 KMKX 281823 AAA
TAFMKE
TAF AMD
KMKE 281823Z 2818/2924 06015KT P6SM OVC005
     FM290000 04008KT P6SM VCSH OVC006
     FM290300 03008KT P6SM VCSH OVC007
     FM291000 02004KT P6SM OVC008
     FM291400 03007KT P6SM SCT010 BKN020
     FM291700 04008KT P6SM BKN035=



000
FTUS43 KMKX 281823 AAA
TAFMKE
TAF AMD
KMKE 281823Z 2818/2924 06015KT P6SM OVC005
     FM290000 04008KT P6SM VCSH OVC006
     FM290300 03008KT P6SM VCSH OVC007
     FM291000 02004KT P6SM OVC008
     FM291400 03007KT P6SM SCT010 BKN020
     FM291700 04008KT P6SM BKN035=



000
FTUS43 KMKX 281735
TAFMKE
TAF
KMKE 281735Z 2818/2924 07015KT P6SM OVC008
     FM290000 04008KT P6SM VCSH OVC008
     FM290300 03008KT P6SM VCSH OVC007
     FM291000 02004KT P6SM OVC008
     FM291400 03007KT P6SM SCT010 BKN020
     FM291700 04008KT P6SM BKN035=



000
FTUS43 KMKX 281735
TAFMSN
TAF
KMSN 281735Z 2818/2918 08012KT P6SM OVC010
     FM290200 06006KT P6SM VCSH OVC008
     FM290500 05005KT P6SM OVC007
     FM291300 02004KT P6SM OVC012
     FM291500 04005KT P6SM BKN028=



000
FTUS43 KMKX 281449 AAA
TAFMSN
TAF AMD
KMSN 281449Z 2815/2912 10008KT 3SM -RA BR VCSH FEW013 OVC019
     FM281600 08012G21KT P6SM OVC015
     FM282100 08011KT P6SM VCSH OVC015
     FM282300 07011KT P6SM VCSH OVC020
     FM290000 07009KT P6SM VCSH OVC030
     FM290500 04005KT P6SM OVC035=



000
FTUS43 KMKX 281406 AAA
TAFMKE
TAF AMD
KMKE 281406Z 2814/2918 06012KT P6SM OVC028
     FM281800 07015G20KT P6SM VCSH OVC015
     FM282100 05012KT P6SM VCSH OVC025
     FM290000 04008KT P6SM VCSH OVC035=



000
FTUS43 KMKX 281406 AAA
TAFMKE
TAF AMD
KMKE 281406Z 2814/2918 06012KT P6SM OVC028
     FM281800 07015G20KT P6SM VCSH OVC015
     FM282100 05012KT P6SM VCSH OVC025
     FM290000 04008KT P6SM VCSH OVC035=



000
FTUS43 KMKX 281124
TAFMSN
TAF
KMSN 281124Z 2812/2912 08012KT P6SM -SHRA OVC025
     FM281400 08013KT P6SM VCSH OVC020
     FM281700 08012G21KT P6SM -SHRA OVC015
     FM282100 08011KT P6SM VCSH OVC015
     FM282300 07011KT P6SM VCSH OVC020
     FM290000 07009KT P6SM VCSH OVC030
     FM290500 04005KT P6SM OVC035=



000
FTUS43 KMKX 281124
TAFMKE
TAF
KMKE 281124Z 2812/2918 08016KT P6SM -SHRA OVC025
     FM281400 08016KT P6SM -SHRA OVC025
     FM281800 07015G20KT P6SM VCSH OVC015
     FM282100 05012KT P6SM VCSH OVC025
     FM290000 04008KT P6SM VCSH OVC035=



000
FTUS43 KMKX 280831 AAA
TAFMKE
TAF AMD
KMKE 280831Z 2809/2912 08011KT P6SM -SHRA BKN035 OVC045
     FM281400 08009KT P6SM VCSH OVC030
     FM281600 07013G22KT P6SM VCSH OVC025
     FM282100 06013KT 6SM BR OVC025
     FM290000 03006KT P6SM VCSH OVC025
     FM291000 VRB03KT P6SM BKN045=



000
FTUS43 KMKX 280520
TAFMKE
TAF
KMKE 280520Z 2806/2912 05008KT P6SM VCSH OVC080
     FM280900 06008KT 6SM -SHRA BR OVC050
     FM281400 08009KT P6SM VCSH OVC030
     FM281600 07013G22KT P6SM VCSH OVC025
     FM282100 06013KT 6SM BR OVC025
     FM290000 03006KT P6SM VCSH OVC025
     FM291000 VRB03KT P6SM BKN045=



000
FTUS43 KMKX 280520
TAFMSN
TAF
KMSN 280520Z 2806/2906 06009KT P6SM VCSH OVC035
     FM280900 07010KT 6SM -SHRA BR OVC030
     FM281500 08012G21KT P6SM VCSH OVC015
     FM282200 06010KT P6SM VCSH OVC025
     FM290000 05009KT P6SM VCSH OVC035
     FM290400 04005KT P6SM VCSH OVC030=



000
FTUS43 KMKX 280302 AAE
TAFMSN
TAF AMD
KMSN 280302Z 2803/2824 06016KT P6SM BKN040 OVC070
     FM280400 07016KT P6SM VCSH OVC050
     FM281300 07013G20KT P6SM VCSH OVC030
     FM282000 07011KT P6SM VCSH OVC025=



000
FTUS43 KMKX 280302 AAE
TAFMSN
TAF AMD
KMSN 280302Z 2803/2824 06016KT P6SM BKN040 OVC070
     FM280400 07016KT P6SM VCSH OVC050
     FM281300 07013G20KT P6SM VCSH OVC030
     FM282000 07011KT P6SM VCSH OVC025=



000
FTUS43 KMKX 280300 AAD
TAFMKE
TAF AMD
KMKE 280300Z 2803/2906 05014KT P6SM OVC060
     FM280600 07013G20KT P6SM VCSH OVC050
     FM281400 07013G22KT P6SM VCSH OVC030
     FM282200 06014KT P6SM VCSH OVC025
     FM290200 03006KT P6SM VCSH OVC020=



000
FTUS43 KMKX 280209 AAD
TAFMSN
TAF AMD
KMSN 280209Z 2802/2824 07010G18KT P6SM BKN040 OVC070
     FM280400 07011G20KT P6SM VCSH OVC050
     FM281300 07013G20KT P6SM VCSH OVC030
     FM282000 07011KT P6SM VCSH OVC025=



000
FTUS43 KMKX 280209 AAD
TAFMSN
TAF AMD
KMSN 280209Z 2802/2824 07010G18KT P6SM BKN040 OVC070
     FM280400 07011G20KT P6SM VCSH OVC050
     FM281300 07013G20KT P6SM VCSH OVC030
     FM282000 07011KT P6SM VCSH OVC025=



000
FTUS43 KMKX 272341 AAC
TAFMSN
TAF AMD
KMSN 272341Z 2800/2824 09013G20KT P6SM BKN040 OVC070
     FM280300 07013G21KT P6SM VCSH OVC050
     FM281300 07013G20KT P6SM VCSH OVC030
     FM282000 07011KT P6SM VCSH OVC025=



000
FTUS43 KMKX 272341 AAC
TAFMKE
TAF AMD
KMKE 272341Z 2800/2906 03015G23KT P6SM -SHRA BKN040 OVC090
     FM280200 05012G21KT P6SM OVC060
     FM280600 07013G20KT P6SM VCSH OVC050
     FM281400 07013G22KT P6SM VCSH OVC030
     FM282200 06014KT P6SM VCSH OVC025
     FM290200 03006KT P6SM VCSH OVC020=



000
FTUS43 KMKX 272341 AAC
TAFMSN
TAF AMD
KMSN 272341Z 2800/2824 09013G20KT P6SM BKN040 OVC070
     FM280300 07013G21KT P6SM VCSH OVC050
     FM281300 07013G20KT P6SM VCSH OVC030
     FM282000 07011KT P6SM VCSH OVC025=



000
FTUS43 KMKX 272341 AAC
TAFMKE
TAF AMD
KMKE 272341Z 2800/2906 03015G23KT P6SM -SHRA BKN040 OVC090
     FM280200 05012G21KT P6SM OVC060
     FM280600 07013G20KT P6SM VCSH OVC050
     FM281400 07013G22KT P6SM VCSH OVC030
     FM282200 06014KT P6SM VCSH OVC025
     FM290200 03006KT P6SM VCSH OVC020=



000
FTUS43 KMKX 272050 AAB
TAFMKE
TAF AMD
KMKE 272050Z 2721/2824 05017G26KT P6SM VCSH SCT070 BKN200
     FM280000 04013G24KT P6SM -SHRA OVC070
     FM280500 06011G18KT P6SM -SHRA OVC060
     FM280900 07012G20KT P6SM -SHRA OVC040
     FM281200 07012G20KT P6SM VCSH OVC040
     FM281800 06011G19KT P6SM VCSH OVC010=



000
FTUS43 KMKX 272048 AAB
TAFMSN
TAF AMD
KMSN 272048Z 2721/2818 08018G27KT P6SM -SHRA OVC080
     FM280100 07015G20KT P6SM -SHRA OVC060
     FM280900 07013G22KT P6SM VCSH OVC040
     FM281500 07013G23KT P6SM VCSH OVC025
     FM281700 07012G21KT P6SM VCSH OVC015=



000
FTUS43 KMKX 272001 AAA
TAFMKE
TAF AMD
KMKE 272001Z 2720/2824 05015G25KT P6SM BKN200
     FM280000 04013G24KT P6SM VCSH OVC070
     FM280500 06011G18KT P6SM -SHRA OVC060
     FM280900 07012G20KT P6SM -SHRA OVC040
     FM281200 07012G20KT P6SM VCSH OVC040
     FM281800 06011G19KT P6SM VCSH OVC010=



000
FTUS43 KMKX 271918 AAA
TAFMSN
TAF AMD
KMSN 271918Z 2719/2818 09019G28KT P6SM -SHRA OVC100
     FM272100 08017G25KT P6SM -SHRA OVC080
     FM280100 07015G20KT P6SM -SHRA OVC060
     FM280900 07013G22KT P6SM VCSH OVC040
     FM281500 07013G23KT P6SM VCSH OVC025
     FM281700 07012G21KT P6SM VCSH OVC015=



000
FTUS43 KMKX 271732
TAFMSN
TAF
KMSN 271732Z 2718/2818 09019G28KT P6SM OVC200
     FM272100 08017G25KT P6SM -SHRA OVC080
     FM280100 07015G20KT P6SM -SHRA OVC060
     FM280900 07013G22KT P6SM VCSH OVC040
     FM281500 07013G23KT P6SM VCSH OVC025
     FM281700 07012G21KT P6SM VCSH OVC015=



000
FTUS43 KMKX 271732
TAFMKE
TAF
KMKE 271732Z 2718/2824 07015G25KT P6SM BKN250
     FM280000 04013G24KT P6SM OVC070
     FM280500 06011G18KT P6SM -SHRA OVC060
     FM280900 07012G20KT P6SM -SHRA OVC040
     FM281200 07012G20KT P6SM VCSH OVC040
     FM281800 06011G19KT P6SM VCSH OVC010=



000
FTUS43 KMKX 271505 AAB
TAFMKE
TAF AMD
KMKE 271505Z 2715/2818 06014G21KT P6SM BKN250
     FM280300 07013G22KT P6SM VCSH OVC100
     FM280600 07013G20KT P6SM -RA OVC060
     FM280900 07012G20KT P6SM RA OVC040
     FM281200 07012KT 6SM -RA BR SCT015 OVC025
     FM281500 06011G20KT 5SM -RA BR BKN012 OVC025=



000
FTUS43 KMKX 271504 AAB
TAFMSN
TAF AMD
KMSN 271504Z 2715/2812 08015G22KT P6SM BKN250
     FM272100 07013G22KT P6SM VCSH OVC100
     FM280300 07015KT P6SM -RA OVC060
     FM280900 07013G22KT P6SM -RA OVC025
     FM281100 08013KT 6SM -RA BR OVC015=



000
FTUS43 KMKX 271400 AAA
TAFMKE
TAF AMD
KMKE 271400Z 2714/2818 07013G19KT P6SM SCT250
     FM271700 06013G20KT P6SM BKN200
     FM280300 07013G22KT P6SM VCSH OVC100
     FM280600 07013G20KT P6SM -RA OVC060
     FM280900 07012G20KT P6SM RA OVC040
     FM281200 07012KT 6SM -RA BR SCT015 OVC025
     FM281500 06011G20KT 5SM -RA BR BKN012 OVC025=



000
FTUS43 KMKX 271358 AAA
TAFMSN
TAF AMD
KMSN 271358Z 2714/2812 08014G22KT P6SM BKN250
     FM272100 07013G22KT P6SM VCSH OVC100
     FM280300 07015KT P6SM -RA OVC060
     FM280900 07013G22KT P6SM -RA OVC025
     FM281100 08013KT 6SM -RA BR OVC015=



000
FTUS43 KMKX 271120
TAFMKE
TAF
KMKE 271120Z 2712/2818 07012KT P6SM BKN250
     FM271700 06013G20KT P6SM BKN200
     FM280300 07013G22KT P6SM VCSH OVC100
     FM280600 07013G20KT P6SM -RA OVC060
     FM280900 07012G20KT P6SM RA OVC040
     FM281200 07012KT 6SM -RA BR SCT015 OVC025
     FM281500 06011G20KT 5SM -RA BR BKN012 OVC025=



000
FTUS43 KMKX 271120
TAFMSN
TAF
KMSN 271120Z 2712/2812 08012KT P6SM BKN250
     FM271400 08013G21KT P6SM BKN250
     FM272100 07013G22KT P6SM VCSH OVC100
     FM280300 07015KT P6SM -RA OVC060
     FM280900 07013G22KT P6SM -RA OVC025
     FM281100 08013KT 6SM -RA BR OVC015=



000
FTUS43 KMKX 271120
TAFMKE
TAF
KMKE 271120Z 2712/2818 07012KT P6SM BKN250
     FM271700 06013G20KT P6SM BKN200
     FM280300 07013G22KT P6SM VCSH OVC100
     FM280600 07013G20KT P6SM -RA OVC060
     FM280900 07012G20KT P6SM RA OVC040
     FM281200 07012KT 6SM -RA BR SCT015 OVC025
     FM281500 06011G20KT 5SM -RA BR BKN012 OVC025=



000
FTUS43 KMKX 270918 AAA
TAFMKE
TAF AMD
KMKE 270918Z 2709/2812 06009KT P6SM BKN250
     FM272100 06015G23KT P6SM VCSH OVC080
     FM280000 04010G18KT 6SM -SHRA OVC060
     FM280500 07008KT 6SM -SHRA OVC050
     FM280900 07008KT 5SM -SHRA OVC030=



000
FTUS43 KMKX 270830 AAA
TAFMSN
TAF AMD
KMSN 270830Z 2709/2806 07007KT P6SM SCT020 BKN250
     FM271400 08013G21KT P6SM BKN080
     FM271800 09018G26KT P6SM VCSH OVC070
     FM272100 08018G26KT P6SM -RA OVC060=



000
FTUS43 KMKX 270520
TAFMKE
TAF
KMKE 270520Z 2706/2812 05010KT P6SM BKN025
     FM270700 06005KT P6SM SCT025 BKN250
     FM272100 06015G23KT P6SM VCSH OVC080
     FM280000 04010G18KT 6SM -SHRA OVC060
     FM280500 07008KT 6SM -SHRA OVC050
     FM280900 07008KT 5SM -SHRA OVC030=



000
FTUS43 KMKX 270520
TAFMSN
TAF
KMSN 270520Z 2706/2806 06007KT P6SM OVC022
     FM271000 07007KT P6SM SCT022 BKN080
     FM271400 08013G21KT P6SM BKN080
     FM271800 09018G26KT P6SM VCSH OVC070
     FM272100 08018G26KT P6SM -RA OVC060=



000
FTUS43 KMKX 270304 AAC
TAFMKE
TAF AMD
KMKE 270304Z 2703/2806 03013KT P6SM FEW015 OVC025
     FM271000 06007KT P6SM SCT025 BKN050
     FM271300 07012G20KT P6SM BKN050
     FM271900 07015G24KT P6SM OVC050
     FM280000 04010G18KT P6SM -SHRA SCT025 OVC050=



000
FTUS43 KMKX 270303 AAB
TAFMSN
TAF AMD
KMSN 270303Z 2703/2724 05007KT P6SM BKN020 BKN200
     FM271300 08012G21KT P6SM SCT020 BKN250
     FM271600 09017G25KT P6SM BKN050
     FM272200 08018G26KT P6SM -RA SCT025 OVC035=



000
FTUS43 KMKX 270303 AAB
TAFMSN
TAF AMD
KMSN 270303Z 2703/2724 05007KT P6SM BKN020 BKN200
     FM271300 08012G21KT P6SM SCT020 BKN250
     FM271600 09017G25KT P6SM BKN050
     FM272200 08018G26KT P6SM -RA SCT025 OVC035=



000
FTUS43 KMKX 270208 AAB
TAFMKE
TAF AMD
KMKE 270208Z 2702/2806 03013KT P6SM FEW010 OVC015
     FM270400 06006KT P6SM FEW010 BKN020
     FM271000 06007KT P6SM BKN050
     FM271300 07012G20KT P6SM BKN050
     FM271900 07015G24KT P6SM OVC050
     FM280000 04010G18KT P6SM -SHRA SCT025 OVC050=



000
FTUS43 KMKX 270205 AAA
TAFMSN
TAF AMD
KMSN 270205Z 2702/2724 08007KT P6SM SCT020 BKN200
     FM270400 08008KT P6SM BKN025
     FM270600 07007KT P6SM SCT025 BKN200
     FM271300 08012G21KT P6SM BKN250
     FM271600 09017G25KT P6SM BKN050
     FM272200 08018G26KT P6SM -RA SCT025 OVC035=



000
FTUS43 KMKX 262342 AAA
TAFMKE
TAF AMD
KMKE 262342Z 2700/2806 03016G22KT P6SM FEW008 OVC014
     FM270400 06006KT P6SM FEW008 BKN015
     FM271000 06007KT P6SM BKN050
     FM271300 07012G20KT P6SM BKN050
     FM271900 07015G24KT P6SM OVC050
     FM280000 04010G18KT P6SM -SHRA SCT025 OVC050=



000
FTUS43 KMKX 262342 AAA
TAFMKE
TAF AMD
KMKE 262342Z 2700/2806 03016G22KT P6SM FEW008 OVC014
     FM270400 06006KT P6SM FEW008 BKN015
     FM271000 06007KT P6SM BKN050
     FM271300 07012G20KT P6SM BKN050
     FM271900 07015G24KT P6SM OVC050
     FM280000 04010G18KT P6SM -SHRA SCT025 OVC050=



000
FTUS43 KMKX 262340
TAFMSN
TAF
KMSN 262340Z 2700/2724 06012G20KT P6SM OVC020
     FM270300 07008KT P6SM BKN025
     FM270600 07007KT P6SM SCT025 BKN200
     FM271300 08012G21KT P6SM BKN250
     FM271600 09017G25KT P6SM BKN050
     FM272200 08018G26KT P6SM -RA SCT025 OVC035=



000
FTUS43 KMKX 262340
TAFMKE
TAF
KMKE 262340Z 2700/2806 03008KT P6SM FEW008 OVC014
     FM270500 06006KT P6SM FEW008 BKN015
     FM271000 06007KT P6SM BKN050
     FM271300 07012G20KT P6SM BKN050
     FM271900 07015G24KT P6SM OVC050
     FM280000 04010G18KT P6SM -SHRA SCT025 OVC050=



000
FTUS43 KMKX 262030 AAA
TAFMKE
TAF AMD
KMKE 262030Z 2621/2724 02015G25KT P6SM OVC010
     FM270100 03008KT P6SM OVC025
     FM270200 03008KT P6SM OVC035
     FM270500 06007KT P6SM BKN060
     FM271200 07014G22KT P6SM BKN150
     FM272000 04016G23KT P6SM OVC150=



000
FTUS43 KMKX 262030 AAA
TAFMKE
TAF AMD
KMKE 262030Z 2621/2724 02015G25KT P6SM OVC010
     FM270100 03008KT P6SM OVC025
     FM270200 03008KT P6SM OVC035
     FM270500 06007KT P6SM BKN060
     FM271200 07014G22KT P6SM BKN150
     FM272000 04016G23KT P6SM OVC150=



000
FTUS43 KMKX 262029 AAA
TAFMSN
TAF AMD
KMSN 262029Z 2620/2718 05011G15KT P6SM OVC020
     FM270000 06011KT P6SM OVC030
     FM270500 07009KT P6SM BKN050
     FM271300 08014G22KT P6SM BKN110=



000
FTUS43 KMKX 262029 AAA
TAFMSN
TAF AMD
KMSN 262029Z 2620/2718 05011G15KT P6SM OVC020
     FM270000 06011KT P6SM OVC030
     FM270500 07009KT P6SM BKN050
     FM271300 08014G22KT P6SM BKN110=



000
FTUS43 KMKX 261737
TAFMKE
TAF
KMKE 261737Z 2618/2724 02014G24KT P6SM SCT009 OVC015
     FM270100 03008KT P6SM OVC025
     FM270200 03008KT P6SM OVC035
     FM270500 06007KT P6SM BKN060
     FM271200 07014G22KT P6SM BKN150
     FM272000 04016G23KT P6SM OVC150=



000
FTUS43 KMKX 261737
TAFMKE
TAF
KMKE 261737Z 2618/2724 02014G24KT P6SM SCT009 OVC015
     FM270100 03008KT P6SM OVC025
     FM270200 03008KT P6SM OVC035
     FM270500 06007KT P6SM BKN060
     FM271200 07014G22KT P6SM BKN150
     FM272000 04016G23KT P6SM OVC150=



000
FTUS43 KMKX 261737
TAFMSN
TAF
KMSN 261737Z 2618/2718 04010KT P6SM OVC010
     FM262100 06011KT P6SM OVC020
     FM262300 06011KT P6SM OVC030
     FM270500 07009KT P6SM BKN050
     FM271300 08014G22KT P6SM BKN110=



000
FTUS43 KMKX 261616 AAC
TAFMKE
TAF AMD
KMKE 261616Z 2616/2718 02013G21KT P6SM SCT008 OVC025
     FM262200 02009KT P6SM OVC025
     FM270400 05007KT P6SM BKN025
     FM270700 08008KT P6SM SCT025=



000
FTUS43 KMKX 261614 AAC
TAFMSN
TAF AMD
KMSN 261614Z 2616/2712 05010KT P6SM OVC010
     FM270900 07009KT P6SM BKN020
     FM271100 07010KT P6SM BKN200=



000
FTUS43 KMKX 261515 AAB
TAFMKE
TAF AMD
KMKE 261515Z 2615/2718 02012G18KT P6SM OVC009
     FM261800 02012G18KT P6SM OVC010
     FM262200 02009KT P6SM OVC015
     FM270400 05007KT P6SM BKN020
     FM270700 08008KT P6SM SCT020=



000
FTUS43 KMKX 261513 AAB
TAFMSN
TAF AMD
KMSN 261513Z 2615/2712 04010KT P6SM OVC007
     FM261700 05009KT P6SM OVC010
     FM270900 07009KT P6SM BKN020
     FM271100 07010KT P6SM BKN200=



000
FTUS43 KMKX 261407 AAA
TAFMKE
TAF AMD
KMKE 261407Z 2614/2718 02012G18KT P6SM OVC006
     FM262200 02009KT P6SM OVC015
     FM270400 05007KT P6SM BKN020
     FM270700 08008KT P6SM SCT020=



000
FTUS43 KMKX 261407 AAA
TAFMKE
TAF AMD
KMKE 261407Z 2614/2718 02012G18KT P6SM OVC006
     FM262200 02009KT P6SM OVC015
     FM270400 05007KT P6SM BKN020
     FM270700 08008KT P6SM SCT020=



000
FTUS43 KMKX 261404 AAA
TAFMSN
TAF AMD
KMSN 261404Z 2614/2712 04010KT P6SM OVC006
     FM261700 05009KT P6SM OVC010
     FM270900 07009KT P6SM BKN020
     FM271100 07010KT P6SM BKN200=



000
FTUS43 KMKX 261120
TAFMSN
TAF
KMSN 261120Z 2612/2712 03007KT 3SM BR OVC004
     FM261500 04009KT P6SM OVC008
     FM261700 05009KT P6SM OVC010
     FM270900 07009KT P6SM BKN020
     FM271100 07010KT P6SM BKN200=



000
FTUS43 KMKX 261120
TAFMSN
TAF
KMSN 261120Z 2612/2712 03007KT 3SM BR OVC004
     FM261500 04009KT P6SM OVC008
     FM261700 05009KT P6SM OVC010
     FM270900 07009KT P6SM BKN020
     FM271100 07010KT P6SM BKN200=



000
FTUS43 KMKX 261120
TAFMKE
TAF
KMKE 261120Z 2612/2718 01008KT 2SM BR OVC002
     FM261400 01008KT 3SM BR OVC003
     FM261600 02009KT 6SM BR OVC006
     FM262200 02009KT P6SM OVC015
     FM270400 05007KT P6SM BKN020
     FM270700 08008KT P6SM SCT020=



000
FTUS43 KMKX 261120
TAFMKE
TAF
KMKE 261120Z 2612/2718 01008KT 2SM BR OVC002
     FM261400 01008KT 3SM BR OVC003
     FM261600 02009KT 6SM BR OVC006
     FM262200 02009KT P6SM OVC015
     FM270400 05007KT P6SM BKN020
     FM270700 08008KT P6SM SCT020=



000
FTUS43 KMKX 261022 AAB
TAFMSN
TAF AMD
KMSN 261022Z 2610/2706 01012KT P6SM OVC005
     FM261400 03009KT P6SM OVC008
     FM261600 04010KT P6SM BKN015
     FM262200 06011KT P6SM BKN020
     FM270400 07011KT P6SM SCT060=



000
FTUS43 KMKX 261021 AAC
TAFMKE
TAF AMD
KMKE 261021Z 2610/2712 03010KT 2SM BR OVC003
     FM261300 02012KT 5SM BR OVC006
     FM261700 02010G19KT P6SM OVC010
     FM262000 03012G20KT P6SM BKN015
     FM270300 04010KT P6SM SCT060
     FM270500 07009KT P6SM SCT200=



000
FTUS43 KMKX 260825 AAB
TAFMKE
TAF AMD
KMKE 260825Z 2608/2712 36007KT 6SM BR OVC004
     FM261300 02012KT P6SM OVC008
     FM261500 02010G19KT P6SM OVC010
     FM262000 03012G20KT P6SM BKN015
     FM262200 03012KT P6SM BKN035
     FM270300 04010KT P6SM SCT060
     FM270500 07009KT P6SM SCT200=



000
FTUS43 KMKX 260824 AAA
TAFMSN
TAF AMD
KMSN 260824Z 2608/2706 02011KT P6SM OVC006
     FM261400 03009KT P6SM OVC008
     FM261600 04010KT P6SM BKN015
     FM262200 06011KT P6SM BKN050
     FM270400 07011KT P6SM SCT060=



000
FTUS43 KMKX 260824 AAA
TAFMSN
TAF AMD
KMSN 260824Z 2608/2706 02011KT P6SM OVC006
     FM261400 03009KT P6SM OVC008
     FM261600 04010KT P6SM BKN015
     FM262200 06011KT P6SM BKN050
     FM270400 07011KT P6SM SCT060=



000
FTUS43 KMKX 260740 AAA
TAFMKE
TAF AMD
KMKE 260740Z 2608/2712 02010KT 5SM BR OVC004
     FM261100 02012KT 3SM BR OVC008
     FM261400 02010G19KT 3SM BR OVC010
     FM262000 03012G20KT P6SM BKN015
     FM262200 03012KT P6SM BKN035
     FM270300 04010KT P6SM SCT060
     FM270500 07009KT P6SM SCT200=



000
FTUS43 KMKX 260520
TAFMSN
TAF
KMSN 260520Z 2606/2706 02006KT P6SM OVC007
     FM260800 02006KT 5SM BR OVC003
     FM261400 03009KT P6SM OVC008
     FM261600 04010KT P6SM BKN015
     FM262200 06011KT P6SM BKN050
     FM270400 07011KT P6SM SCT060=



000
FTUS43 KMKX 260520
TAFMSN
TAF
KMSN 260520Z 2606/2706 02006KT P6SM OVC007
     FM260800 02006KT 5SM BR OVC003
     FM261400 03009KT P6SM OVC008
     FM261600 04010KT P6SM BKN015
     FM262200 06011KT P6SM BKN050
     FM270400 07011KT P6SM SCT060=



000
FTUS43 KMKX 260520
TAFMKE
TAF
KMKE 260520Z 2606/2712 36005KT 2SM BR OVC002
     FM261100 36006KT 3SM BR OVC008
     FM261400 01010G19KT 3SM BR OVC010
     FM262000 03012G20KT P6SM BKN015
     FM262200 03012KT P6SM BKN035
     FM270300 04010KT P6SM SCT060
     FM270500 07009KT P6SM SCT200=



    US Dept of Commerce
    National Oceanic and Atmospheric Administration
    National Weather Service
    1325 East West Highway
    Silver Spring, MD 20910
    Page Author: NWS Internet Services Team
Disclaimer
Information Quality
Credits
Glossary
Privacy Policy
Freedom of Information Act (FOIA)
About Us
Career Opportunities